Time;durP1;ratioP1;P1;durP2;ratioP2;P2;SDS_P1;SDS_P2;PMS_P1;PMS_P2;Temp;Humidity;BMP_temperature;BMP_pressure;BME280_temperature;BME280_humidity;BME280_pressure;Samples;Min_cycle;Max_cycle;Signal;HPM_P1;HPM_P2
2023/04/30 00:01:32;;;;;;;;;;;11.70;82.90;;;;;;5071837;28;19998;-61
2023/04/30 00:03:58;;;;;;;;;;;11.70;82.90;;;;;;5088994;28;19928;-61
2023/04/30 00:06:25;;;;;;;;;;;11.70;82.80;;;;;;5087590;28;20255;-60
2023/04/30 00:08:52;;;;;;;;;;;11.60;82.90;;;;;;5089756;28;20582;-62
2023/04/30 00:11:20;;;;;;;;;;;11.60;82.90;;;;;;5089451;28;20027;-61
2023/04/30 00:13:47;;;;;;;;;;;11.60;82.90;;;;;;5090258;28;19941;-61
2023/04/30 00:16:13;;;;;;;;;;;11.60;83.00;;;;;;5068833;28;19976;-62
2023/04/30 00:18:40;;;;;;;;;;;11.50;82.90;;;;;;5089411;28;19928;-61
2023/04/30 00:21:07;;;;;;;;;;;11.50;83.00;;;;;;5088178;28;20485;-60
2023/04/30 00:23:33;;;;;;;;;;;11.40;83.10;;;;;;5070382;28;20331;-60
2023/04/30 00:26:00;;;;;;;;;;;11.40;83.40;;;;;;5089061;28;19924;-61
2023/04/30 00:28:29;;;;;;;;;;;11.40;83.50;;;;;;5088885;28;19924;-63
2023/04/30 00:30:55;;;;;;;;;;;11.40;83.50;;;;;;5090487;28;19973;-63
2023/04/30 00:33:22;;;;;;;;;;;11.30;83.50;;;;;;5093179;28;19935;-63
2023/04/30 00:35:49;;;;;;;;;;;11.30;83.50;;;;;;5072830;28;20019;-62
2023/04/30 00:38:16;;;;;;;;;;;11.30;83.70;;;;;;5074671;28;19928;-62
2023/04/30 00:40:43;;;;;;;;;;;11.40;83.40;;;;;;5073189;28;19963;-62
2023/04/30 00:43:10;;;;;;;;;;;11.40;83.00;;;;;;5092466;28;19928;-62
2023/04/30 00:45:38;;;;;;;;;;;11.30;83.40;;;;;;5092361;28;20288;-62
2023/04/30 00:48:05;;;;;;;;;;;11.30;83.50;;;;;;5090049;28;19928;-62
2023/04/30 00:50:32;;;;;;;;;;;11.30;83.40;;;;;;5089421;28;20329;-62
2023/04/30 00:53:00;;;;;;;;;;;11.40;83.10;;;;;;5093843;28;20011;-63
2023/04/30 00:55:27;;;;;;;;;;;11.40;82.90;;;;;;5091151;28;19934;-61
2023/04/30 00:57:53;;;;;;;;;;;11.30;82.80;;;;;;5092250;28;20325;-63
2023/04/30 01:00:20;;;;;;;;;;;11.30;82.70;;;;;;5085709;28;20154;-61
2023/04/30 01:02:49;;;;;;;;;;;11.30;82.70;;;;;;5092242;28;19928;-60
2023/04/30 01:05:15;;;;;;;;;;;11.30;82.80;;;;;;5073666;28;19935;-60
2023/04/30 01:07:45;;;;;;;;;;;11.30;82.80;;;;;;5092314;28;19939;-61
2023/04/30 01:10:12;;;;;;;;;;;11.20;83.00;;;;;;5090717;28;20444;-61
2023/04/30 01:12:41;;;;;;;;;;;11.20;83.10;;;;;;5074360;28;19928;-61
2023/04/30 01:15:09;;;;;;;;;;;11.20;83.00;;;;;;5092551;28;19924;-61
2023/04/30 01:17:38;;;;;;;;;;;11.20;83.00;;;;;;5090280;28;20020;-61
2023/04/30 01:20:09;;;;;;;;;;;11.10;82.90;;;;;;5090153;28;19928;-61
2023/04/30 01:22:37;;;;;;;;;;;11.10;82.80;;;;;;5073445;28;20615;-61
2023/04/30 01:25:14;;;;;;;;;;;11.20;82.60;;;;;;5092039;28;20339;-63
2023/04/30 01:28:00;;;;;;;;;;;11.10;82.90;;;;;;5072940;28;19938;-62
2023/04/30 01:30:29;;;;;;;;;;;11.10;82.80;;;;;;5090590;28;19924;-61
2023/04/30 01:32:55;;;;;;;;;;;11.00;82.90;;;;;;5070109;28;19928;-60
2023/04/30 01:35:26;;;;;;;;;;;11.00;82.90;;;;;;5091047;28;19928;-62
2023/04/30 01:37:59;;;;;;;;;;;11.00;82.70;;;;;;5087832;28;19938;-61
2023/04/30 01:40:33;;;;;;;;;;;10.90;82.80;;;;;;5090210;28;19924;-61
2023/04/30 01:43:05;;;;;;;;;;;10.80;82.90;;;;;;5092445;28;19932;-61
2023/04/30 01:45:47;;;;;;;;;;;10.90;82.60;;;;;;5074910;28;19989;-61
2023/04/30 01:48:19;;;;;;;;;;;10.90;82.40;;;;;;5089673;28;19955;-61
2023/04/30 01:50:48;;;;;;;;;;;10.90;82.30;;;;;;5090552;28;20267;-60
2023/04/30 01:53:18;;;;;;;;;;;10.80;82.30;;;;;;5090033;28;19935;-60
2023/04/30 01:55:49;;;;;;;;;;;10.80;82.30;;;;;;5090665;28;20088;-61
2023/04/30 01:58:16;;;;;;;;;;;10.70;82.10;;;;;;5091849;28;19960;-60
2023/04/30 02:00:45;;;;;;;;;;;10.70;82.10;;;;;;5091991;28;19943;-61
2023/04/30 02:03:11;;;;;;;;;;;10.80;81.90;;;;;;5089609;28;20374;-61
2023/04/30 02:05:38;;;;;;;;;;;10.70;81.80;;;;;;5072616;28;19931;-61
2023/04/30 02:08:06;;;;;;;;;;;10.70;81.50;;;;;;5074633;28;19928;-61
2023/04/30 02:10:34;;;;;;;;;;;10.70;81.60;;;;;;5072933;28;19928;-61
2023/04/30 02:13:01;;;;;;;;;;;10.70;81.70;;;;;;5092434;28;19928;-61
2023/04/30 02:15:28;;;;;;;;;;;10.70;81.90;;;;;;5074289;28;19928;-61
2023/04/30 02:17:56;;;;;;;;;;;10.60;82.10;;;;;;5090840;28;19928;-61
2023/04/30 02:20:22;;;;;;;;;;;10.60;82.20;;;;;;5089836;28;19939;-60
2023/04/30 02:22:49;;;;;;;;;;;10.60;82.40;;;;;;5090268;28;20473;-60
2023/04/30 02:25:16;;;;;;;;;;;10.60;82.10;;;;;;5088355;28;19932;-61
2023/04/30 02:27:43;;;;;;;;;;;10.60;82.10;;;;;;5089662;28;19924;-60
2023/04/30 02:30:10;;;;;;;;;;;10.60;82.20;;;;;;5074048;28;19939;-61
2023/04/30 02:32:36;;;;;;;;;;;10.60;82.30;;;;;;5090474;28;20018;-61
2023/04/30 02:35:05;;;;;;;;;;;10.60;82.60;;;;;;5088018;28;19935;-61
2023/04/30 02:37:32;;;;;;;;;;;10.60;82.70;;;;;;5086036;28;19928;-61
2023/04/30 02:39:59;;;;;;;;;;;10.50;82.90;;;;;;5089563;28;20022;-60
2023/04/30 02:42:25;;;;;;;;;;;10.50;82.80;;;;;;5089754;28;19924;-61
2023/04/30 02:44:52;;;;;;;;;;;10.50;82.80;;;;;;5088667;28;19924;-62
2023/04/30 02:47:19;;;;;;;;;;;10.50;83.00;;;;;;5072058;28;19924;-61
2023/04/30 02:49:45;;;;;;;;;;;10.50;83.00;;;;;;5091284;28;19924;-61
2023/04/30 02:52:13;;;;;;;;;;;10.50;83.10;;;;;;5086773;28;19928;-61
2023/04/30 02:54:41;;;;;;;;;;;10.50;83.30;;;;;;5085842;28;19932;-61
2023/04/30 02:57:08;;;;;;;;;;;10.40;83.70;;;;;;5090144;28;19930;-61
2023/04/30 02:59:37;;;;;;;;;;;10.40;83.80;;;;;;5088533;28;20209;-61
2023/04/30 03:02:04;;;;;;;;;;;10.40;83.70;;;;;;5087044;28;19932;-62
2023/04/30 03:04:31;;;;;;;;;;;10.40;83.70;;;;;;5090008;28;19981;-62
2023/04/30 03:06:59;;;;;;;;;;;10.40;83.80;;;;;;5087774;28;19924;-61
2023/04/30 03:09:27;;;;;;;;;;;10.40;83.90;;;;;;5083262;28;20035;-61
2023/04/30 03:11:54;;;;;;;;;;;10.40;84.00;;;;;;5087958;28;19928;-62
2023/04/30 03:14:21;;;;;;;;;;;10.40;84.10;;;;;;5086820;28;20322;-60
2023/04/30 03:16:49;;;;;;;;;;;10.40;84.10;;;;;;5087150;28;19962;-62
2023/04/30 03:19:16;;;;;;;;;;;10.40;84.30;;;;;;5086010;28;19928;-59
2023/04/30 03:21:43;;;;;;;;;;;10.30;84.40;;;;;;5090129;28;19958;-61
2023/04/30 03:24:11;;;;;;;;;;;10.30;84.40;;;;;;5066890;28;19928;-61
2023/04/30 03:26:39;;;;;;;;;;;10.30;84.40;;;;;;5071127;28;19936;-61
2023/04/30 03:29:06;;;;;;;;;;;10.30;84.40;;;;;;5087332;28;19928;-62
2023/04/30 03:31:32;;;;;;;;;;;10.20;84.60;;;;;;5084056;28;19947;-61
2023/04/30 03:33:59;;;;;;;;;;;10.20;84.70;;;;;;5069535;28;19924;-61
2023/04/30 03:36:27;;;;;;;;;;;10.20;84.90;;;;;;5088670;28;19930;-62
2023/04/30 03:38:54;;;;;;;;;;;10.10;84.80;;;;;;5089405;28;19965;-62
2023/04/30 03:41:23;;;;;;;;;;;10.10;84.60;;;;;;5090227;28;19924;-62
2023/04/30 03:43:51;;;;;;;;;;;10.10;84.60;;;;;;5087776;28;19969;-62
2023/04/30 03:46:18;;;;;;;;;;;10.10;84.50;;;;;;5090031;28;20009;-61
2023/04/30 03:48:45;;;;;;;;;;;10.00;84.50;;;;;;5088071;28;19932;-61
2023/04/30 03:51:12;;;;;;;;;;;10.00;84.50;;;;;;5087386;28;19970;-62
2023/04/30 03:53:39;;;;;;;;;;;10.00;84.30;;;;;;5068935;28;20014;-61
2023/04/30 03:56:06;;;;;;;;;;;9.90;84.40;;;;;;5085956;28;20055;-62
2023/04/30 03:58:33;;;;;;;;;;;9.90;84.50;;;;;;5067526;28;19931;-62
2023/04/30 04:01:02;;;;;;;;;;;9.90;84.30;;;;;;5086445;28;20009;-60
2023/04/30 04:03:28;;;;;;;;;;;9.90;84.20;;;;;;5087616;28;19924;-62
2023/04/30 04:05:55;;;;;;;;;;;9.80;84.00;;;;;;5069310;28;19997;-61
2023/04/30 04:08:22;;;;;;;;;;;9.80;83.90;;;;;;5088857;28;19928;-62
2023/04/30 04:10:49;;;;;;;;;;;9.80;83.70;;;;;;5087624;28;20636;-61
2023/04/30 04:13:16;;;;;;;;;;;9.80;83.60;;;;;;5087592;28;19932;-62
2023/04/30 04:15:44;;;;;;;;;;;9.70;83.60;;;;;;5071318;28;19982;-61
2023/04/30 04:18:12;;;;;;;;;;;9.70;83.60;;;;;;5089888;28;20428;-61
2023/04/30 04:20:39;;;;;;;;;;;9.70;83.60;;;;;;5068777;28;19955;-61
2023/04/30 04:23:08;;;;;;;;;;;9.70;83.60;;;;;;5070211;28;20387;-62
2023/04/30 04:25:35;;;;;;;;;;;9.70;83.70;;;;;;5069186;28;20301;-61
2023/04/30 04:28:02;;;;;;;;;;;9.60;83.70;;;;;;5088447;28;19924;-62
2023/04/30 04:30:29;;;;;;;;;;;9.60;83.70;;;;;;5069465;28;19963;-62
2023/04/30 04:32:57;;;;;;;;;;;9.60;83.70;;;;;;5089854;28;19924;-62
2023/04/30 04:35:25;;;;;;;;;;;9.60;83.70;;;;;;5087607;28;19968;-61
2023/04/30 04:37:52;;;;;;;;;;;9.50;83.80;;;;;;5082571;28;19924;-60
2023/04/30 04:40:19;;;;;;;;;;;9.50;83.90;;;;;;5068864;28;19932;-62
2023/04/30 04:42:48;;;;;;;;;;;9.50;83.90;;;;;;5089090;28;19934;-62
2023/04/30 04:45:15;;;;;;;;;;;9.50;83.90;;;;;;5087614;28;19963;-61
2023/04/30 04:47:42;;;;;;;;;;;9.50;84.00;;;;;;5069897;28;20287;-61
2023/04/30 04:50:09;;;;;;;;;;;9.50;83.90;;;;;;5072266;28;19928;-61
2023/04/30 04:52:38;;;;;;;;;;;9.50;83.80;;;;;;5067952;28;19932;-61
2023/04/30 04:55:06;;;;;;;;;;;9.50;83.90;;;;;;5068231;28;20305;-60
2023/04/30 04:57:35;;;;;;;;;;;9.50;83.90;;;;;;5084117;28;19924;-61
2023/04/30 05:00:05;;;;;;;;;;;9.60;84.00;;;;;;5072509;28;19924;-61
2023/04/30 05:02:31;;;;;;;;;;;9.50;83.90;;;;;;5087762;28;19955;-62
2023/04/30 05:04:58;;;;;;;;;;;9.50;84.10;;;;;;5090022;28;19928;-62
2023/04/30 05:07:25;;;;;;;;;;;9.50;84.10;;;;;;5089589;28;19932;-63
2023/04/30 05:09:55;;;;;;;;;;;9.60;84.00;;;;;;5088315;28;19930;-61
2023/04/30 05:12:23;;;;;;;;;;;9.60;83.80;;;;;;5086130;28;20344;-62
2023/04/30 05:14:51;;;;;;;;;;;9.60;83.80;;;;;;5087846;28;20018;-60
2023/04/30 05:17:18;;;;;;;;;;;9.50;83.90;;;;;;5092293;28;19931;-61
2023/04/30 05:19:46;;;;;;;;;;;9.60;83.80;;;;;;5085181;28;19932;-62
2023/04/30 05:22:13;;;;;;;;;;;9.60;83.80;;;;;;5089788;28;19930;-62
2023/04/30 05:24:39;;;;;;;;;;;9.60;83.80;;;;;;5091127;28;19934;-62
2023/04/30 05:27:07;;;;;;;;;;;9.60;83.90;;;;;;5089205;28;19935;-62
2023/04/30 05:29:34;;;;;;;;;;;9.60;83.90;;;;;;5093203;28;19925;-62
2023/04/30 05:32:01;;;;;;;;;;;9.70;83.90;;;;;;5090125;28;19928;-63
2023/04/30 05:34:28;;;;;;;;;;;9.70;83.90;;;;;;5088901;28;19932;-61
2023/04/30 05:36:55;;;;;;;;;;;9.70;83.80;;;;;;5089932;28;20390;-65
2023/04/30 05:39:21;;;;;;;;;;;9.70;83.80;;;;;;5089981;28;20337;-60
2023/04/30 05:41:48;;;;;;;;;;;9.70;83.80;;;;;;5091676;28;19955;-61
2023/04/30 05:44:16;;;;;;;;;;;9.70;83.90;;;;;;5090639;28;19936;-62
2023/04/30 05:46:43;;;;;;;;;;;9.70;83.90;;;;;;5090987;28;19924;-61
2023/04/30 05:49:10;;;;;;;;;;;9.80;83.70;;;;;;5089812;28;19932;-61
2023/04/30 05:51:37;;;;;;;;;;;9.90;83.40;;;;;;5092139;28;19928;-60
2023/04/30 05:54:04;;;;;;;;;;;9.90;83.60;;;;;;5087681;28;19932;-61
2023/04/30 05:56:30;;;;;;;;;;;9.90;83.40;;;;;;5088919;28;19931;-62
2023/04/30 05:58:57;;;;;;;;;;;9.90;83.50;;;;;;5090363;28;19939;-62
2023/04/30 06:01:27;;;;;;;;;;;9.90;83.60;;;;;;5090508;28;19951;-61
2023/04/30 06:03:54;;;;;;;;;;;9.90;83.10;;;;;;5090852;28;19928;-62
2023/04/30 06:06:21;;;;;;;;;;;10.00;83.30;;;;;;5090893;28;19931;-62
2023/04/30 06:08:47;;;;;;;;;;;10.00;83.00;;;;;;5090315;28;19932;-62
2023/04/30 06:11:15;;;;;;;;;;;10.10;82.80;;;;;;5088086;28;19928;-60
2023/04/30 06:13:41;;;;;;;;;;;10.00;82.90;;;;;;5089907;28;19970;-60
2023/04/30 06:16:08;;;;;;;;;;;10.10;82.90;;;;;;5090702;28;19928;-60
2023/04/30 06:18:36;;;;;;;;;;;10.10;83.10;;;;;;5090703;28;19928;-61
2023/04/30 06:21:03;;;;;;;;;;;10.20;83.00;;;;;;5091179;28;20402;-61
2023/04/30 06:23:30;;;;;;;;;;;10.30;82.80;;;;;;5087324;28;19959;-62
2023/04/30 06:25:57;;;;;;;;;;;10.40;82.50;;;;;;5088367;28;20400;-66
2023/04/30 06:28:24;;;;;;;;;;;10.40;82.30;;;;;;5087920;28;20386;-60
2023/04/30 06:30:53;;;;;;;;;;;10.50;81.60;;;;;;5088805;28;19931;-61
2023/04/30 06:33:19;;;;;;;;;;;10.60;81.40;;;;;;5090314;28;19941;-61
2023/04/30 06:35:49;;;;;;;;;;;10.70;81.40;;;;;;5087289;28;19982;-61
2023/04/30 06:38:16;;;;;;;;;;;10.90;80.70;;;;;;5089714;28;19938;-62
2023/04/30 06:40:43;;;;;;;;;;;11.00;81.10;;;;;;5089503;28;19924;-61
2023/04/30 06:43:10;;;;;;;;;;;11.10;80.70;;;;;;5088616;28;20011;-61
2023/04/30 06:45:37;;;;;;;;;;;11.30;80.10;;;;;;5089907;28;19981;-61
2023/04/30 06:48:04;;;;;;;;;;;11.50;79.60;;;;;;5090550;28;19924;-63
2023/04/30 06:50:31;;;;;;;;;;;11.60;79.30;;;;;;5089828;28;19924;-62
2023/04/30 06:53:00;;;;;;;;;;;11.80;78.90;;;;;;5082764;28;19959;-62
2023/04/30 06:55:27;;;;;;;;;;;11.90;78.00;;;;;;5065806;28;20022;-59
2023/04/30 06:57:54;;;;;;;;;;;12.00;77.20;;;;;;5090888;28;19924;-61
2023/04/30 07:00:21;;;;;;;;;;;12.20;76.70;;;;;;5087155;28;19947;-62
2023/04/30 07:02:50;;;;;;;;;;;12.20;75.70;;;;;;5088397;28;19924;-62
2023/04/30 07:05:17;;;;;;;;;;;12.40;75.50;;;;;;5087064;28;19932;-62
2023/04/30 07:07:44;;;;;;;;;;;12.40;75.40;;;;;;5090310;28;20018;-62
2023/04/30 07:10:12;;;;;;;;;;;12.50;75.00;;;;;;5090342;28;19932;-61
2023/04/30 07:12:39;;;;;;;;;;;12.60;74.60;;;;;;5090639;28;20370;-62
2023/04/30 07:15:06;;;;;;;;;;;12.80;73.40;;;;;;5083394;28;19928;-61
2023/04/30 07:17:34;;;;;;;;;;;12.90;73.50;;;;;;5091384;28;19997;-62
2023/04/30 07:20:00;;;;;;;;;;;13.20;72.40;;;;;;5088160;28;20823;-62
2023/04/30 07:22:27;;;;;;;;;;;13.30;72.30;;;;;;5088252;28;19934;-61
2023/04/30 07:24:55;;;;;;;;;;;13.50;71.40;;;;;;5087597;28;19932;-61
2023/04/30 07:27:23;;;;;;;;;;;13.70;70.80;;;;;;5086411;28;19938;-61
2023/04/30 07:30:00;;;;;;;;;;;;;;;;;;;;;
2023/04/30 07:32:27;;;;;;;;;;;13.90;69.60;;;;;;5087704;28;20015;-63
2023/04/30 07:34:54;;;;;;;;;;;14.10;69.20;;;;;;5086152;28;20074;-63
2023/04/30 07:37:21;;;;;;;;;;;14.20;68.30;;;;;;5086770;28;19932;-62
2023/04/30 07:39:48;;;;;;;;;;;14.40;67.70;;;;;;5090734;28;19924;-62
2023/04/30 07:42:15;;;;;;;;;;;14.50;67.60;;;;;;5089521;28;20007;-61
2023/04/30 07:44:43;;;;;;;;;;;14.60;66.70;;;;;;5087422;28;19967;-62
2023/04/30 07:47:10;;;;;;;;;;;14.70;66.50;;;;;;5087794;28;19956;-61
2023/04/30 07:49:36;;;;;;;;;;;14.80;66.20;;;;;;5086486;28;19974;-61
2023/04/30 07:52:04;;;;;;;;;;;14.90;65.60;;;;;;5090931;28;20383;-60
2023/04/30 07:54:31;;;;;;;;;;;14.90;64.70;;;;;;5087359;28;19935;-61
2023/04/30 07:56:58;;;;;;;;;;;15.10;64.60;;;;;;5088258;28;19928;-61
2023/04/30 07:59:25;;;;;;;;;;;15.20;64.70;;;;;;5083395;28;19928;-61
2023/04/30 08:01:53;;;;;;;;;;;15.30;63.50;;;;;;5085799;28;19978;-63
2023/04/30 08:04:19;;;;;;;;;;;15.50;63.60;;;;;;5086193;28;19928;-63
2023/04/30 08:06:46;;;;;;;;;;;15.60;63.10;;;;;;5087090;28;19992;-62
2023/04/30 08:09:14;;;;;;;;;;;15.60;62.90;;;;;;5086155;28;19931;-63
2023/04/30 08:11:42;;;;;;;;;;;15.70;62.50;;;;;;5089758;28;20375;-64
2023/04/30 08:14:09;;;;;;;;;;;15.80;62.00;;;;;;5089511;28;19945;-62
2023/04/30 08:16:36;;;;;;;;;;;15.90;61.80;;;;;;5089484;28;20467;-62
2023/04/30 08:19:12;;;;;;;;;;;16.00;61.70;;;;;;5088202;28;19977;-61
2023/04/30 08:21:39;;;;;;;;;;;16.10;61.40;;;;;;5090477;28;20379;-63
2023/04/30 08:24:09;;;;;;;;;;;16.10;60.70;;;;;;5091154;28;20037;-64
2023/04/30 08:26:36;;;;;;;;;;;16.20;60.70;;;;;;5070891;28;19924;-63
2023/04/30 08:29:03;;;;;;;;;;;16.40;60.60;;;;;;5088802;28;19932;-62
2023/04/30 08:31:30;;;;;;;;;;;16.50;60.40;;;;;;5086129;28;20379;-63
2023/04/30 08:33:56;;;;;;;;;;;16.60;60.00;;;;;;5085838;28;20434;-63
2023/04/30 08:36:26;;;;;;;;;;;16.70;59.10;;;;;;5087187;28;20298;-63
2023/04/30 08:38:53;;;;;;;;;;;16.70;59.30;;;;;;5089390;28;19928;-62
2023/04/30 08:41:22;;;;;;;;;;;16.80;58.90;;;;;;5086438;28;20395;-63
2023/04/30 08:43:51;;;;;;;;;;;16.90;59.60;;;;;;5083685;28;19932;-62
2023/04/30 08:46:20;;;;;;;;;;;17.00;58.50;;;;;;5087998;28;19925;-62
2023/04/30 08:48:48;;;;;;;;;;;17.10;57.70;;;;;;5087522;28;20412;-63
2023/04/30 08:51:15;;;;;;;;;;;17.20;56.70;;;;;;5072087;28;20375;-62
2023/04/30 08:53:44;;;;;;;;;;;17.30;57.40;;;;;;5094045;28;20401;-63
2023/04/30 08:56:11;;;;;;;;;;;17.40;56.90;;;;;;5093831;28;19934;-64
2023/04/30 08:58:39;;;;;;;;;;;17.50;56.30;;;;;;5090618;28;19968;-63
2023/04/30 09:03:58;;;;;;;;;;;17.60;54.10;;;;;;5089129;28;19932;-64
2023/04/30 09:06:26;;;;;;;;;;;17.70;53.00;;;;;;5091907;28;19991;-63
2023/04/30 09:08:54;;;;;;;;;;;17.70;53.80;;;;;;5090625;28;19932;-64
2023/04/30 09:11:28;;;;;;;;;;;17.90;53.80;;;;;;5092218;28;20023;-62
2023/04/30 09:13:56;;;;;;;;;;;18.00;53.00;;;;;;5094672;28;19935;-64
2023/04/30 09:16:23;;;;;;;;;;;18.00;52.80;;;;;;5094804;28;19928;-62
2023/04/30 09:18:55;;;;;;;;;;;18.00;51.50;;;;;;5095167;28;19935;-65
2023/04/30 09:21:35;;;;;;;;;;;18.10;51.30;;;;;;5094376;28;19928;-63
2023/04/30 09:24:06;;;;;;;;;;;18.20;51.60;;;;;;5091864;28;19992;-63
2023/04/30 09:26:33;;;;;;;;;;;18.30;52.00;;;;;;5092915;28;19956;-64
2023/04/30 09:29:25;;;;;;;;;;;18.40;52.30;;;;;;5093654;28;19924;-63
2023/04/30 09:35:02;;;;;;;;;;;18.60;51.50;;;;;;5085922;28;23952;-62
2023/04/30 09:37:35;;;;;;;;;;;18.60;50.40;;;;;;5091614;28;20018;-62
2023/04/30 09:40:04;;;;;;;;;;;18.70;50.50;;;;;;5089320;28;19924;-64
2023/04/30 09:42:31;;;;;;;;;;;18.70;49.80;;;;;;5068660;28;19932;-64
2023/04/30 09:45:01;;;;;;;;;;;18.80;50.60;;;;;;5070196;28;19931;-62
2023/04/30 09:47:32;;;;;;;;;;;18.80;50.10;;;;;;5089341;28;19982;-63
2023/04/30 09:49:59;;;;;;;;;;;18.90;50.70;;;;;;5088287;28;20351;-64
2023/04/30 09:52:26;;;;;;;;;;;19.10;51.20;;;;;;5089451;28;20019;-64
2023/04/30 09:54:55;;;;;;;;;;;19.20;51.00;;;;;;5090835;28;19924;-64
2023/04/30 09:57:24;;;;;;;;;;;19.20;50.00;;;;;;5091245;28;19940;-63
2023/04/30 09:59:52;;;;;;;;;;;19.30;50.20;;;;;;5090459;28;19930;-64
2023/04/30 10:02:19;;;;;;;;;;;19.40;48.80;;;;;;5088304;28;19939;-64
2023/04/30 10:04:48;;;;;;;;;;;19.40;48.60;;;;;;5086988;28;19924;-64
2023/04/30 10:07:16;;;;;;;;;;;19.30;49.70;;;;;;5089885;28;20386;-63
2023/04/30 10:09:45;;;;;;;;;;;19.40;49.50;;;;;;5088668;28;19936;-64
2023/04/30 10:12:14;;;;;;;;;;;19.50;49.00;;;;;;5089499;28;19924;-65
2023/04/30 10:14:45;;;;;;;;;;;19.60;49.10;;;;;;5091335;28;19928;-63
2023/04/30 10:17:13;;;;;;;;;;;19.70;48.60;;;;;;5091590;28;19970;-64
2023/04/30 10:19:43;;;;;;;;;;;19.80;48.90;;;;;;5086780;28;20241;-64
2023/04/30 10:22:20;;;;;;;;;;;19.90;49.30;;;;;;5091839;28;19924;-63
2023/04/30 10:24:48;;;;;;;;;;;19.90;49.00;;;;;;5089887;28;19928;-65
2023/04/30 10:27:17;;;;;;;;;;;19.90;48.20;;;;;;5089005;28;19924;-64
2023/04/30 10:29:46;;;;;;;;;;;19.90;46.90;;;;;;5089668;28;19928;-65
2023/04/30 10:32:13;;;;;;;;;;;20.00;46.90;;;;;;5089423;28;19935;-65
2023/04/30 10:34:46;;;;;;;;;;;20.10;47.00;;;;;;5085923;28;19932;-65
2023/04/30 10:37:16;;;;;;;;;;;20.10;47.20;;;;;;5089008;28;19932;-62
2023/04/30 10:39:46;;;;;;;;;;;20.10;47.20;;;;;;5089410;28;20054;-64
2023/04/30 10:42:13;;;;;;;;;;;20.20;47.10;;;;;;5090796;28;20023;-65
2023/04/30 10:44:40;;;;;;;;;;;20.20;46.50;;;;;;5072645;28;20271;-64
2023/04/30 10:47:09;;;;;;;;;;;20.30;47.40;;;;;;5090316;28;19936;-64
2023/04/30 10:49:46;;;;;;;;;;;;;;;;;;;;;
2023/04/30 10:52:14;;;;;;;;;;;20.40;46.40;;;;;;5087741;28;19924;-64
2023/04/30 10:54:50;;;;;;;;;;;20.40;46.10;;;;;;5091324;28;19993;-65
2023/04/30 10:57:18;;;;;;;;;;;20.50;46.40;;;;;;5091186;28;19939;-64
2023/04/30 10:59:52;;;;;;;;;;;20.50;46.30;;;;;;5087901;28;19931;-65
2023/04/30 11:02:20;;;;;;;;;;;20.60;45.80;;;;;;5087778;28;20412;-65
2023/04/30 11:05:06;;;;;;;;;;;20.60;46.30;;;;;;5088356;28;19928;-63
2023/04/30 11:07:33;;;;;;;;;;;20.60;45.90;;;;;;5086593;28;19928;-65
2023/04/30 11:10:00;;;;;;;;;;;20.70;45.00;;;;;;5088644;28;19971;-66
2023/04/30 11:12:31;;;;;;;;;;;20.80;47.20;;;;;;5091074;28;19928;-65
2023/04/30 11:15:00;;;;;;;;;;;20.80;46.70;;;;;;5090321;28;20306;-65
2023/04/30 11:17:28;;;;;;;;;;;20.70;45.70;;;;;;5071103;28;19928;-66
2023/04/30 11:19:58;;;;;;;;;;;20.80;45.70;;;;;;5088318;28;19924;-64
2023/04/30 11:22:34;;;;;;;;;;;20.80;46.20;;;;;;5088318;28;19928;-65
2023/04/30 11:25:05;;;;;;;;;;;20.90;45.30;;;;;;5088157;28;19978;-65
2023/04/30 11:27:33;;;;;;;;;;;20.90;45.80;;;;;;5089652;28;19924;-64
2023/04/30 11:30:00;;;;;;;;;;;20.90;45.00;;;;;;5089401;28;19928;-64
2023/04/30 11:32:33;;;;;;;;;;;20.90;45.50;;;;;;5089502;28;19928;-66
2023/04/30 11:35:02;;;;;;;;;;;20.90;45.60;;;;;;5086347;28;19989;-64
2023/04/30 11:37:31;;;;;;;;;;;20.80;44.70;;;;;;5086598;28;19932;-64
2023/04/30 11:40:03;;;;;;;;;;;20.90;45.20;;;;;;5085444;28;19924;-65
2023/04/30 11:42:35;;;;;;;;;;;20.90;46.20;;;;;;5089772;28;19928;-66
2023/04/30 11:45:06;;;;;;;;;;;21.00;44.60;;;;;;5090094;28;19935;-65
2023/04/30 11:47:44;;;;;;;;;;;20.90;45.70;;;;;;5089860;28;19924;-66
2023/04/30 11:50:26;;;;;;;;;;;;;;;;;;;;;
2023/04/30 11:52:53;;;;;;;;;;;21.00;45.60;;;;;;5084719;28;19928;-65
2023/04/30 11:55:21;;;;;;;;;;;20.90;44.60;;;;;;5089113;28;20333;-66
2023/04/30 11:57:49;;;;;;;;;;;20.90;45.20;;;;;;5090011;28;19935;-65
2023/04/30 12:00:19;;;;;;;;;;;20.90;45.40;;;;;;5087214;28;19935;-66
2023/04/30 12:02:48;;;;;;;;;;;21.00;45.70;;;;;;5087979;28;20405;-65
2023/04/30 12:05:17;;;;;;;;;;;21.00;45.00;;;;;;5088422;28;20291;-66
2023/04/30 12:07:47;;;;;;;;;;;20.90;44.70;;;;;;5084381;28;19924;-66
2023/04/30 12:10:29;;;;;;;;;;;21.00;44.80;;;;;;5087496;28;20005;-66
2023/04/30 12:12:56;;;;;;;;;;;21.00;44.70;;;;;;5086709;28;19928;-66
2023/04/30 12:15:25;;;;;;;;;;;21.00;44.00;;;;;;5088951;28;19935;-65
2023/04/30 12:17:57;;;;;;;;;;;21.00;44.90;;;;;;5091062;28;20404;-66
2023/04/30 12:20:24;;;;;;;;;;;20.90;44.70;;;;;;5087915;28;20015;-65
2023/04/30 12:22:51;;;;;;;;;;;20.90;44.60;;;;;;5086687;28;19935;-65
2023/04/30 12:25:18;;;;;;;;;;;20.90;44.90;;;;;;5084565;28;20377;-67
2023/04/30 12:27:46;;;;;;;;;;;20.90;44.50;;;;;;5085384;28;19932;-66
2023/04/30 12:30:13;;;;;;;;;;;20.90;44.90;;;;;;5085421;28;20738;-65
2023/04/30 12:32:41;;;;;;;;;;;20.90;44.30;;;;;;5087205;28;19924;-66
2023/04/30 12:35:14;;;;;;;;;;;20.90;45.30;;;;;;5087579;28;19924;-67
2023/04/30 12:37:47;;;;;;;;;;;20.90;44.70;;;;;;5086998;28;20011;-67
2023/04/30 12:40:14;;;;;;;;;;;21.00;45.10;;;;;;5086844;28;19932;-66
2023/04/30 12:42:41;;;;;;;;;;;20.90;44.70;;;;;;5086386;28;19973;-63
2023/04/30 12:45:09;;;;;;;;;;;20.90;44.80;;;;;;5087651;28;19960;-65
2023/04/30 12:47:42;;;;;;;;;;;20.90;44.70;;;;;;5084078;28;20009;-65
2023/04/30 12:50:12;;;;;;;;;;;21.10;45.00;;;;;;5080985;28;19932;-65
2023/04/30 12:52:39;;;;;;;;;;;21.00;44.80;;;;;;5086433;28;20386;-65
2023/04/30 12:55:17;;;;;;;;;;;20.80;44.50;;;;;;5082406;28;19935;-66
2023/04/30 12:58:10;;;;;;;;;;;20.80;44.30;;;;;;5085125;28;19924;-67
2023/04/30 13:00:45;;;;;;;;;;;20.80;44.20;;;;;;5057576;28;19979;-66
2023/04/30 13:03:12;;;;;;;;;;;20.90;44.70;;;;;;5084765;28;19931;-67
2023/04/30 13:05:40;;;;;;;;;;;20.90;45.90;;;;;;5083962;28;19939;-66
2023/04/30 13:08:08;;;;;;;;;;;20.80;45.20;;;;;;5080674;28;19947;-66
2023/04/30 13:10:38;;;;;;;;;;;20.70;45.30;;;;;;5067192;28;19955;-66
2023/04/30 13:13:05;;;;;;;;;;;20.60;45.40;;;;;;5085021;28;20013;-66
2023/04/30 13:15:32;;;;;;;;;;;20.40;45.70;;;;;;5087557;28;20405;-66
2023/04/30 13:17:59;;;;;;;;;;;20.30;45.60;;;;;;5086701;28;19978;-65
2023/04/30 13:20:26;;;;;;;;;;;20.20;46.20;;;;;;5067876;28;19928;-66
2023/04/30 13:22:54;;;;;;;;;;;20.20;45.50;;;;;;5087788;28;19928;-66
2023/04/30 13:25:22;;;;;;;;;;;20.20;46.30;;;;;;5086445;28;20002;-66
2023/04/30 13:27:48;;;;;;;;;;;20.30;45.70;;;;;;5089028;28;19928;-65
2023/04/30 13:30:15;;;;;;;;;;;20.50;46.20;;;;;;5087054;28;19928;-66
2023/04/30 13:32:44;;;;;;;;;;;20.60;45.90;;;;;;5082828;28;19924;-66
2023/04/30 13:35:11;;;;;;;;;;;20.70;46.40;;;;;;5085476;28;19928;-66
2023/04/30 13:37:38;;;;;;;;;;;20.80;46.30;;;;;;5087168;28;19932;-68
2023/04/30 13:40:08;;;;;;;;;;;20.80;46.20;;;;;;5090356;28;19939;-67
2023/04/30 13:42:36;;;;;;;;;;;20.70;45.90;;;;;;5089177;28;19928;-67
2023/04/30 13:45:03;;;;;;;;;;;20.60;46.00;;;;;;5089398;28;19928;-67
2023/04/30 13:47:30;;;;;;;;;;;20.50;45.70;;;;;;5090297;28;20332;-66
2023/04/30 13:49:57;;;;;;;;;;;20.50;46.20;;;;;;5091195;28;19930;-67
2023/04/30 13:52:24;;;;;;;;;;;20.40;45.50;;;;;;5091634;28;19979;-66
2023/04/30 13:54:51;;;;;;;;;;;20.30;45.30;;;;;;5092048;28;19924;-66
2023/04/30 13:57:19;;;;;;;;;;;20.30;46.10;;;;;;5068487;28;20270;-67
2023/04/30 13:59:46;;;;;;;;;;;20.20;45.80;;;;;;5091667;28;20038;-66
2023/04/30 14:02:13;;;;;;;;;;;20.10;45.90;;;;;;5087746;28;19959;-65
2023/04/30 14:04:40;;;;;;;;;;;19.90;46.00;;;;;;5087897;28;20429;-66
2023/04/30 14:07:07;;;;;;;;;;;19.80;46.20;;;;;;5087572;28;19932;-67
2023/04/30 14:09:34;;;;;;;;;;;19.70;46.00;;;;;;5083825;28;19928;-65
2023/04/30 14:12:01;;;;;;;;;;;19.60;45.90;;;;;;5070263;28;20362;-65
2023/04/30 14:14:29;;;;;;;;;;;19.60;46.00;;;;;;5085483;28;19942;-67
2023/04/30 14:16:56;;;;;;;;;;;19.70;46.10;;;;;;5088343;28;20023;-67
2023/04/30 14:19:23;;;;;;;;;;;19.80;46.60;;;;;;5087247;28;20019;-67
2023/04/30 14:21:50;;;;;;;;;;;20.00;47.20;;;;;;5085116;28;19935;-66
2023/04/30 14:24:17;;;;;;;;;;;20.10;46.30;;;;;;5086472;28;20068;-67
2023/04/30 14:26:44;;;;;;;;;;;20.10;46.80;;;;;;5071326;28;19939;-67
2023/04/30 14:29:11;;;;;;;;;;;20.00;47.20;;;;;;5090665;28;20386;-67
2023/04/30 14:31:39;;;;;;;;;;;19.90;47.60;;;;;;5083127;28;19924;-66
2023/04/30 14:34:06;;;;;;;;;;;19.80;46.60;;;;;;5089255;28;19924;-66